createdAt,value
2018-11-27T00:00:07.239Z,1.80
2018-11-27T00:02:34.858Z,3.83
2018-11-27T00:05:02.432Z,1.90
2018-11-27T00:07:30.091Z,4.33
2018-11-27T00:09:57.597Z,3.43
2018-11-27T00:12:25.039Z,3.23
2018-11-27T00:14:52.579Z,2.80
2018-11-27T00:17:20.079Z,1.63
2018-11-27T00:19:47.495Z,2.93
2018-11-27T00:22:15.629Z,3.03
2018-11-27T00:24:43.084Z,1.90
2018-11-27T00:27:10.525Z,3.93
2018-11-27T00:29:37.979Z,3.53
2018-11-27T00:32:05.535Z,3.70
2018-11-27T00:34:32.966Z,2.00
2018-11-27T00:37:00.370Z,2.17
2018-11-27T00:39:27.845Z,4.17
2018-11-27T00:41:55.278Z,1.83
2018-11-27T00:44:22.681Z,3.27
2018-11-27T00:46:50.124Z,3.43
2018-11-27T00:49:17.535Z,1.87
2018-11-27T00:51:44.971Z,4.53
2018-11-27T00:54:12.420Z,1.43
2018-11-27T00:56:39.842Z,2.20
2018-11-27T00:59:07.260Z,1.80
2018-11-27T01:01:34.667Z,2.80
2018-11-27T01:04:02.131Z,1.57
2018-11-27T01:06:29.549Z,3.43
2018-11-27T01:08:57.018Z,2.30
2018-11-27T01:11:24.449Z,1.97
2018-11-27T01:13:51.911Z,2.43
2018-11-27T01:16:19.316Z,2.30
2018-11-27T01:18:46.770Z,1.47
2018-11-27T01:21:14.202Z,2.37
2018-11-27T01:23:41.651Z,1.70
2018-11-27T01:26:09.151Z,3.03
2018-11-27T01:28:36.610Z,3.47
2018-11-27T01:31:04.554Z,1.17
2018-11-27T01:33:31.974Z,2.03
2018-11-27T01:35:59.412Z,1.67
2018-11-27T01:38:26.859Z,2.63
2018-11-27T01:40:54.250Z,1.70
2018-11-27T01:43:21.707Z,2.70
2018-11-27T01:45:49.131Z,2.53
2018-11-27T01:48:16.563Z,2.73
2018-11-27T01:50:44.040Z,1.97
2018-11-27T01:53:11.473Z,5.10
2018-11-27T01:55:38.900Z,1.73
2018-11-27T01:58:06.467Z,1.80
2018-11-27T02:00:34.083Z,1.53
2018-11-27T02:03:01.602Z,2.23
2018-11-27T02:05:29.854Z,1.97
2018-11-27T02:07:57.411Z,2.07
2018-11-27T02:10:25.045Z,1.97
2018-11-27T02:12:53.483Z,1.93
2018-11-27T02:15:24.084Z,1.87
2018-11-27T02:17:51.656Z,2.43
2018-11-27T02:20:19.227Z,2.50
2018-11-27T02:22:46.740Z,1.83
2018-11-27T02:25:18.124Z,2.00
2018-11-27T02:27:45.650Z,1.93
2018-11-27T02:30:15.425Z,2.87
2018-11-27T02:32:43.019Z,2.47
2018-11-27T02:35:11.761Z,1.83
2018-11-27T02:37:39.295Z,1.97
2018-11-27T02:40:08.997Z,4.47
2018-11-27T02:42:36.566Z,3.90
2018-11-27T02:45:05.372Z,4.43
2018-11-27T02:47:32.870Z,3.07
2018-11-27T02:50:00.373Z,3.63
2018-11-27T02:52:27.827Z,3.53
2018-11-27T02:54:55.251Z,3.90
2018-11-27T02:57:22.679Z,6.07
2018-11-27T02:59:50.177Z,5.37
2018-11-27T03:02:17.635Z,4.13
2018-11-27T03:04:45.597Z,9.00
2018-11-27T03:07:13.733Z,11.63
2018-11-27T03:09:41.772Z,11.03
2018-11-27T03:12:10.111Z,8.17
2018-11-27T03:14:38.158Z,9.90
2018-11-27T03:17:06.217Z,9.97
2018-11-27T03:19:34.364Z,17.03
2018-11-27T03:22:02.203Z,17.13
2018-11-27T03:24:29.936Z,11.03
2018-11-27T03:26:57.633Z,12.70
2018-11-27T03:29:25.228Z,13.10
2018-11-27T03:31:52.746Z,11.80
2018-11-27T03:34:20.270Z,13.37
2018-11-27T03:36:47.811Z,10.40
2018-11-27T03:39:15.311Z,9.67
2018-11-27T03:41:42.748Z,14.20
2018-11-27T03:44:10.287Z,9.60
2018-11-27T03:46:37.808Z,9.80
2018-11-27T03:49:06.026Z,14.33
2018-11-27T03:51:33.516Z,10.57
2018-11-27T03:54:01.088Z,9.93
2018-11-27T03:56:28.652Z,13.53
2018-11-27T03:58:56.355Z,8.87
2018-11-27T04:01:24.401Z,8.33
2018-11-27T04:03:52.164Z,8.10
2018-11-27T04:06:19.753Z,9.43
2018-11-27T04:08:47.422Z,10.13
2018-11-27T04:11:15.156Z,7.90
2018-11-27T04:13:42.790Z,8.00
2018-11-27T04:16:10.247Z,10.13
2018-11-27T04:18:37.745Z,13.47
2018-11-27T04:21:05.623Z,9.40
2018-11-27T04:23:33.089Z,12.23
2018-11-27T04:26:00.655Z,9.13
2018-11-27T04:28:28.169Z,10.67
2018-11-27T04:30:55.651Z,9.93
2018-11-27T04:33:23.124Z,10.27
2018-11-27T04:35:50.925Z,12.10
2018-11-27T04:38:18.443Z,9.50
2018-11-27T04:40:45.882Z,11.93
2018-11-27T04:43:13.481Z,11.60
2018-11-27T04:45:41.133Z,10.83
2018-11-27T04:48:08.630Z,14.30
2018-11-27T04:50:36.100Z,13.27
2018-11-27T04:53:03.829Z,13.00
2018-11-27T04:55:31.919Z,12.60
2018-11-27T04:58:00.296Z,13.83
2018-11-27T05:00:28.639Z,23.23
2018-11-27T05:02:57.148Z,17.00
2018-11-27T05:05:25.447Z,11.37
2018-11-27T05:07:53.400Z,17.87
2018-11-27T05:10:22.256Z,18.30
2018-11-27T05:12:50.135Z,12.13
2018-11-27T05:15:21.538Z,9.67
2018-11-27T05:17:51.329Z,12.60
2018-11-27T05:20:19.378Z,12.87
2018-11-27T05:22:46.987Z,14.60
2018-11-27T05:25:15.645Z,12.37
2018-11-27T05:27:45.261Z,15.10
2018-11-27T05:30:15.691Z,11.70
2018-11-27T05:32:43.244Z,13.43
2018-11-27T05:35:18.923Z,14.17
2018-11-27T05:37:47.295Z,13.27
2018-11-27T05:40:16.758Z,10.57
2018-11-27T05:42:44.576Z,12.10
2018-11-27T05:45:18.302Z,12.00
2018-11-27T05:47:45.863Z,11.87
2018-11-27T05:50:14.196Z,14.03
2018-11-27T05:52:41.837Z,15.37
2018-11-27T05:55:10.331Z,17.13
2018-11-27T05:57:37.797Z,10.57
2018-11-27T06:00:14.259Z,11.93
2018-11-27T06:02:41.671Z,11.80
2018-11-27T06:05:12.411Z,10.47
2018-11-27T06:07:39.881Z,13.37
2018-11-27T06:10:08.889Z,12.10
2018-11-27T06:12:36.349Z,10.70
2018-11-27T06:15:04.154Z,11.90
2018-11-27T06:17:31.598Z,9.17
2018-11-27T06:19:59.036Z,9.20
2018-11-27T06:22:26.477Z,8.93
2018-11-27T06:24:53.986Z,10.10
2018-11-27T06:27:21.564Z,9.87
2018-11-27T06:29:49.055Z,11.63
2018-11-27T06:32:21.284Z,12.27
2018-11-27T06:34:44.030Z,11.50
2018-11-27T06:37:11.467Z,10.47
2018-11-27T06:39:38.888Z,10.90
2018-11-27T06:42:06.299Z,11.00
2018-11-27T06:44:33.814Z,9.83
2018-11-27T06:47:01.892Z,10.67
2018-11-27T06:49:29.737Z,10.53
2018-11-27T06:51:57.447Z,11.47
2018-11-27T06:54:25.093Z,9.83
2018-11-27T06:56:53.459Z,8.77
2018-11-27T06:59:21.878Z,11.13
2018-11-27T07:01:49.836Z,9.47
2018-11-27T07:04:18.442Z,18.73
2018-11-27T07:06:47.275Z,13.73
2018-11-27T07:09:15.449Z,10.10
2018-11-27T07:11:43.161Z,10.07
2018-11-27T07:14:10.905Z,8.57
2018-11-27T07:16:38.537Z,15.30
2018-11-27T07:19:06.201Z,16.50
2018-11-27T07:21:33.742Z,14.20
2018-11-27T07:24:01.238Z,12.83
2018-11-27T07:26:28.865Z,10.23
2018-11-27T07:28:56.651Z,13.43
2018-11-27T07:31:24.885Z,11.20
2018-11-27T07:33:52.950Z,13.17
2018-11-27T07:36:20.512Z,13.67
2018-11-27T07:38:48.027Z,15.27
2018-11-27T07:41:15.679Z,12.87
2018-11-27T07:43:43.130Z,10.50
2018-11-27T07:46:10.643Z,11.70
2018-11-27T07:48:38.179Z,10.53
2018-11-27T07:51:05.870Z,10.80
2018-11-27T07:53:33.373Z,12.07
2018-11-27T07:56:00.922Z,10.80
2018-11-27T07:58:28.367Z,8.17
2018-11-27T08:00:55.870Z,10.17
2018-11-27T08:03:23.304Z,9.10
2018-11-27T08:05:50.877Z,12.50
2018-11-27T08:08:18.685Z,8.93
2018-11-27T08:10:47.352Z,12.37
2018-11-27T08:13:14.824Z,9.20
2018-11-27T08:15:42.294Z,7.50
2018-11-27T08:18:10.618Z,9.90
2018-11-27T08:20:38.101Z,8.30
2018-11-27T08:23:06.767Z,9.77
2018-11-27T08:25:34.207Z,8.80
2018-11-27T08:28:01.729Z,8.73
2018-11-27T08:30:29.134Z,6.77
2018-11-27T08:32:57.131Z,9.43
2018-11-27T08:35:26.918Z,7.70
2018-11-27T08:37:55.740Z,7.43
2018-11-27T08:40:24.236Z,6.53
2018-11-27T08:42:51.646Z,8.10
2018-11-27T08:45:20.021Z,8.30
2018-11-27T08:47:48.405Z,5.97
2018-11-27T08:50:17.113Z,7.73
2018-11-27T08:53:00.759Z,5.73
2018-11-27T08:55:40.988Z,9.63
2018-11-27T08:58:14.759Z,7.40
2018-11-27T09:00:42.387Z,7.47
2018-11-27T09:03:09.982Z,8.67
2018-11-27T09:05:37.516Z,7.53
2018-11-27T09:08:05.721Z,6.77
2018-11-27T09:10:33.451Z,8.30
2018-11-27T09:13:01.175Z,7.03
2018-11-27T09:15:28.348Z,7.23
2018-11-27T09:17:57.474Z,6.37
2018-11-27T09:20:24.906Z,6.13
2018-11-27T09:22:52.441Z,7.93
2018-11-27T09:25:19.938Z,6.47
2018-11-27T09:27:47.429Z,7.60
2018-11-27T09:30:18.323Z,6.20
2018-11-27T09:32:45.807Z,8.93
2018-11-27T09:35:13.292Z,8.37
2018-11-27T09:37:40.746Z,8.33
2018-11-27T09:40:09.762Z,8.83
2018-11-27T09:42:37.205Z,48.47
2018-11-27T09:45:06.278Z,9.53
2018-11-27T09:47:33.736Z,9.00
2018-11-27T09:50:01.224Z,11.37
2018-11-27T09:52:28.853Z,9.73
2018-11-27T09:54:56.299Z,10.97
2018-11-27T09:57:23.773Z,9.13
2018-11-27T09:59:51.269Z,9.17
2018-11-27T10:02:18.739Z,8.23
2018-11-27T10:04:46.535Z,10.20
2018-11-27T10:07:14.110Z,8.30
2018-11-27T10:09:41.822Z,10.90
2018-11-27T10:12:09.404Z,10.33
2018-11-27T10:14:36.909Z,9.13
2018-11-27T10:17:04.504Z,10.13
2018-11-27T10:19:31.984Z,11.00
2018-11-27T10:21:59.471Z,10.97
2018-11-27T10:24:27.065Z,10.17
2018-11-27T10:26:54.503Z,10.97
2018-11-27T10:29:21.931Z,10.03
2018-11-27T10:31:49.401Z,9.97
2018-11-27T10:34:16.863Z,10.37
2018-11-27T10:36:44.464Z,9.10
2018-11-27T10:39:11.896Z,9.47
2018-11-27T10:41:39.427Z,9.83
2018-11-27T10:44:06.936Z,7.90
2018-11-27T10:46:34.370Z,8.93
2018-11-27T10:49:01.807Z,8.23
2018-11-27T10:51:29.239Z,8.60
2018-11-27T10:53:56.626Z,8.47
2018-11-27T10:56:24.125Z,7.00
2018-11-27T10:58:51.583Z,9.70
2018-11-27T11:01:24.774Z,7.13
2018-11-27T11:03:52.854Z,6.50
2018-11-27T11:06:20.285Z,7.40
2018-11-27T11:08:47.877Z,6.83
2018-11-27T11:11:15.401Z,5.33
2018-11-27T11:13:42.820Z,7.03
2018-11-27T11:16:10.271Z,8.00
2018-11-27T11:18:37.777Z,6.50
2018-11-27T11:21:05.855Z,7.43
2018-11-27T11:23:33.264Z,9.17
2018-11-27T11:26:00.737Z,8.83
2018-11-27T11:28:30.060Z,6.63
2018-11-27T11:30:57.552Z,9.07
2018-11-27T11:33:25.046Z,6.60
2018-11-27T11:35:52.610Z,8.57
2018-11-27T11:38:20.119Z,8.23
2018-11-27T11:40:47.536Z,6.30
2018-11-27T11:43:14.966Z,6.93
2018-11-27T11:45:42.466Z,7.47
2018-11-27T11:48:09.905Z,11.30
2018-11-27T11:50:37.365Z,9.07
2018-11-27T11:53:10.410Z,6.20
2018-11-27T11:55:37.862Z,8.30
2018-11-27T11:58:06.255Z,6.90
2018-11-27T12:00:38.466Z,6.97
2018-11-27T12:03:06.652Z,7.17
2018-11-27T12:05:34.896Z,7.57
2018-11-27T12:08:02.448Z,8.73
2018-11-27T12:10:29.920Z,9.47
2018-11-27T12:12:57.407Z,6.40
2018-11-27T12:15:25.549Z,6.47
2018-11-27T12:17:53.133Z,7.40
2018-11-27T12:20:20.667Z,6.90
2018-11-27T12:22:49.427Z,7.20
2018-11-27T12:25:17.196Z,6.57
2018-11-27T12:27:45.132Z,6.30
2018-11-27T12:30:27.647Z,7.13
2018-11-27T12:32:55.180Z,6.70
2018-11-27T12:35:23.324Z,5.67
2018-11-27T12:37:51.140Z,7.90
2018-11-27T12:40:22.128Z,4.40
2018-11-27T12:42:50.402Z,7.60
2018-11-27T12:45:20.259Z,4.53
2018-11-27T12:47:47.889Z,7.13
2018-11-27T12:50:20.006Z,5.40
2018-11-27T12:52:47.487Z,5.60
2018-11-27T12:55:16.225Z,5.43
2018-11-27T12:57:43.801Z,6.97
2018-11-27T13:00:19.663Z,5.37
2018-11-27T13:02:47.641Z,6.60
2018-11-27T13:05:16.980Z,5.93
2018-11-27T13:07:44.764Z,5.40
2018-11-27T13:10:13.979Z,6.27
2018-11-27T13:12:42.122Z,8.37
2018-11-27T13:15:13.959Z,7.97
2018-11-27T13:17:42.043Z,4.30
2018-11-27T13:20:13.127Z,6.23
2018-11-27T13:22:41.044Z,8.97
2018-11-27T13:25:11.858Z,6.07
2018-11-27T13:27:39.743Z,4.67
2018-11-27T13:30:15.152Z,6.07
2018-11-27T13:32:43.851Z,6.17
2018-11-27T13:35:12.508Z,6.03
2018-11-27T13:37:40.525Z,5.03
2018-11-27T13:40:15.814Z,5.73
2018-11-27T13:42:43.594Z,5.33
2018-11-27T13:45:12.674Z,6.70
2018-11-27T13:47:40.943Z,5.03
2018-11-27T13:50:10.418Z,7.17
2018-11-27T13:52:38.615Z,4.67
2018-11-27T13:55:16.489Z,6.47
2018-11-27T13:57:44.126Z,6.67
2018-11-27T14:00:13.488Z,5.57
2018-11-27T14:02:42.104Z,5.67
2018-11-27T14:05:14.711Z,5.87
2018-11-27T14:07:42.494Z,5.00
2018-11-27T14:10:10.897Z,5.10
2018-11-27T14:12:38.514Z,4.60
2018-11-27T14:15:14.279Z,4.43
2018-11-27T14:17:41.740Z,5.90
2018-11-27T14:20:09.277Z,6.17
2018-11-27T14:22:36.756Z,6.47
2018-11-27T14:25:04.558Z,5.63
2018-11-27T14:27:32.004Z,5.57
2018-11-27T14:29:59.505Z,4.03
2018-11-27T14:32:26.992Z,5.93
2018-11-27T14:34:59.709Z,6.17
2018-11-27T14:37:22.134Z,7.63
2018-11-27T14:39:49.679Z,5.37
2018-11-27T14:42:17.538Z,6.30
2018-11-27T14:44:45.337Z,5.47
2018-11-27T14:47:13.477Z,5.47
2018-11-27T14:49:41.744Z,5.27
2018-11-27T14:52:12.716Z,5.73
2018-11-27T14:54:41.154Z,6.23
2018-11-27T14:57:09.317Z,5.53
2018-11-27T14:59:37.818Z,5.03
2018-11-27T15:02:06.916Z,5.90
2018-11-27T15:04:35.504Z,5.50
2018-11-27T15:07:03.762Z,5.70
2018-11-27T15:09:32.373Z,5.50
2018-11-27T15:12:00.655Z,5.27
2018-11-27T15:14:31.405Z,8.97
2018-11-27T15:16:59.727Z,6.43
2018-11-27T15:19:27.671Z,5.13
2018-11-27T15:21:55.534Z,9.53
2018-11-27T15:24:23.625Z,6.03
2018-11-27T15:26:51.473Z,5.63
2018-11-27T15:29:18.977Z,6.70
2018-11-27T15:31:46.542Z,4.17
2018-11-27T15:34:14.012Z,6.47
2018-11-27T15:36:41.447Z,6.70
2018-11-27T15:39:09.251Z,6.97
2018-11-27T15:41:36.925Z,3.90
2018-11-27T15:44:04.879Z,5.83
2018-11-27T15:46:32.363Z,5.77
2018-11-27T15:48:59.893Z,6.67
2018-11-27T15:51:27.692Z,6.50
2018-11-27T15:53:55.472Z,7.03
2018-11-27T15:56:23.073Z,5.40
2018-11-27T15:58:50.740Z,6.13
2018-11-27T16:01:18.369Z,5.17
2018-11-27T16:03:46.060Z,4.90
2018-11-27T16:06:13.773Z,7.57
2018-11-27T16:08:41.746Z,6.43
2018-11-27T16:11:09.911Z,6.07
2018-11-27T16:13:38.071Z,6.77
2018-11-27T16:16:06.633Z,7.07
2018-11-27T16:18:34.818Z,5.67
2018-11-27T16:21:04.073Z,5.23
2018-11-27T16:23:32.063Z,5.63
2018-11-27T16:26:00.126Z,4.17
2018-11-27T16:28:31.204Z,5.80
2018-11-27T16:30:59.465Z,8.27
2018-11-27T16:33:27.311Z,7.17
2018-11-27T16:35:55.103Z,5.83
2018-11-27T16:38:23.023Z,6.97
2018-11-27T16:40:51.307Z,4.50
2018-11-27T16:43:19.071Z,7.73
2018-11-27T16:45:46.764Z,4.30
2018-11-27T16:48:14.262Z,6.80
2018-11-27T16:50:41.820Z,4.37
2018-11-27T16:53:09.353Z,5.33
2018-11-27T16:55:36.803Z,3.90
2018-11-27T16:58:04.463Z,5.77
2018-11-27T17:00:33.907Z,5.10
2018-11-27T17:03:03.400Z,5.57
2018-11-27T17:05:35.580Z,8.03
2018-11-27T17:08:03.118Z,5.00
2018-11-27T17:10:30.605Z,4.53
2018-11-27T17:12:58.194Z,6.37
2018-11-27T17:15:26.730Z,3.77
2018-11-27T17:17:54.250Z,5.37
2018-11-27T17:20:24.504Z,8.23
2018-11-27T17:22:52.579Z,5.23
2018-11-27T17:25:20.018Z,5.03
2018-11-27T17:27:47.715Z,5.80
2018-11-27T17:30:21.653Z,8.10
2018-11-27T17:32:49.335Z,4.47
2018-11-27T17:35:16.782Z,4.07
2018-11-27T17:37:44.265Z,6.20
2018-11-27T17:40:12.350Z,4.67
2018-11-27T17:42:39.786Z,7.33
2018-11-27T17:45:12.556Z,4.87
2018-11-27T17:47:40.017Z,4.93
2018-11-27T17:50:09.267Z,4.57
2018-11-27T17:52:36.853Z,5.57
2018-11-27T17:55:05.652Z,5.90
2018-11-27T17:57:33.115Z,3.73
2018-11-27T18:00:00.592Z,5.53
2018-11-27T18:02:28.010Z,4.67
2018-11-27T18:04:55.591Z,4.60
2018-11-27T18:07:23.079Z,5.20
2018-11-27T18:09:50.811Z,6.80
2018-11-27T18:12:18.063Z,7.10
2018-11-27T18:14:45.500Z,4.50
2018-11-27T18:17:13.017Z,2.30
2018-11-27T18:19:40.427Z,3.70
2018-11-27T18:22:07.892Z,5.67
2018-11-27T18:24:35.547Z,2.90
2018-11-27T18:27:03.045Z,3.23
2018-11-27T18:29:30.641Z,5.23
2018-11-27T18:31:59.114Z,3.93
2018-11-27T18:34:26.633Z,3.07
2018-11-27T18:36:54.177Z,4.20
2018-11-27T18:39:21.714Z,4.87
2018-11-27T18:41:49.275Z,6.23
2018-11-27T18:44:16.765Z,10.47
2018-11-27T18:46:44.309Z,7.23
2018-11-27T18:49:11.735Z,4.97
2018-11-27T18:51:39.148Z,5.60
2018-11-27T18:54:06.685Z,8.23
2018-11-27T18:56:34.081Z,6.50
2018-11-27T18:59:01.610Z,5.13
2018-11-27T19:01:29.174Z,3.33
2018-11-27T19:03:56.621Z,4.13
2018-11-27T19:06:24.163Z,5.00
2018-11-27T19:08:51.626Z,3.00
2018-11-27T19:11:19.104Z,4.40
2018-11-27T19:13:46.581Z,6.67
2018-11-27T19:16:14.029Z,5.30
2018-11-27T19:18:41.483Z,4.70
2018-11-27T19:21:08.907Z,4.50
2018-11-27T19:23:36.572Z,3.67
2018-11-27T19:26:04.046Z,5.67
2018-11-27T19:28:31.497Z,4.93
2018-11-27T19:30:58.929Z,3.83
2018-11-27T19:33:26.352Z,6.67
2018-11-27T19:35:53.801Z,5.17
2018-11-27T19:38:22.098Z,4.63
2018-11-27T19:40:49.540Z,5.80
2018-11-27T19:43:16.975Z,3.47
2018-11-27T19:45:44.667Z,4.47
2018-11-27T19:48:13.166Z,2.40
2018-11-27T19:50:40.660Z,4.67
2018-11-27T19:53:12.074Z,7.90
2018-11-27T19:55:38.020Z,7.77
2018-11-27T19:58:05.919Z,7.20
2018-11-27T20:00:33.375Z,6.93
2018-11-27T20:03:00.791Z,3.87
2018-11-27T20:05:29.063Z,3.83
2018-11-27T20:07:56.529Z,5.63
2018-11-27T20:10:24.071Z,5.27
2018-11-27T20:12:51.528Z,4.70
2018-11-27T20:15:22.862Z,4.67
2018-11-27T20:17:50.916Z,5.10
2018-11-27T20:20:21.497Z,4.50
2018-11-27T20:22:48.986Z,3.35
2018-11-27T20:25:18.439Z,4.13
2018-11-27T20:27:45.840Z,3.37
2018-11-27T20:30:16.720Z,5.00
2018-11-27T20:32:45.771Z,6.30
2018-11-27T20:35:13.954Z,4.40
2018-11-27T20:37:41.606Z,5.40
2018-11-27T20:40:12.115Z,2.87
2018-11-27T20:42:39.597Z,4.35
2018-11-27T20:45:09.174Z,3.33
2018-11-27T20:47:36.602Z,4.20
2018-11-27T20:50:11.990Z,5.13
2018-11-27T20:52:33.511Z,4.60
2018-11-27T20:55:00.895Z,4.10
2018-11-27T20:57:28.717Z,5.12
2018-11-27T20:59:56.118Z,6.80
2018-11-27T21:02:23.679Z,6.35
2018-11-27T21:04:51.031Z,2.90
2018-11-27T21:07:18.405Z,4.62
2018-11-27T21:09:45.855Z,5.93
2018-11-27T21:12:13.312Z,5.93
2018-11-27T21:14:40.793Z,4.70
2018-11-27T21:17:08.186Z,4.65
2018-11-27T21:19:35.561Z,6.17
2018-11-27T21:22:03.078Z,3.80
2018-11-27T21:24:30.480Z,3.20
2018-11-27T21:26:57.871Z,7.35
2018-11-27T21:29:25.307Z,3.85
2018-11-27T21:31:52.723Z,3.33
2018-11-27T21:34:20.260Z,4.85
2018-11-27T21:36:47.642Z,6.42
2018-11-27T21:39:15.073Z,5.10
2018-11-27T21:41:42.533Z,4.12
2018-11-27T21:44:10.499Z,4.70
2018-11-27T21:46:37.959Z,5.95
2018-11-27T21:49:05.443Z,3.20
2018-11-27T21:51:32.879Z,3.85
2018-11-27T21:54:00.282Z,4.83
2018-11-27T21:56:27.712Z,3.95
2018-11-27T21:58:55.123Z,3.62
2018-11-27T22:01:22.550Z,4.97
2018-11-27T22:03:50.111Z,6.12
2018-11-27T22:06:17.570Z,5.37
2018-11-27T22:08:48.895Z,3.77
2018-11-27T22:11:16.535Z,5.65
2018-11-27T22:13:43.993Z,4.58
2018-11-27T22:16:11.391Z,4.85
2018-11-27T22:18:38.850Z,4.45
2018-11-27T22:21:06.342Z,6.97
2018-11-27T22:23:33.796Z,5.12
2018-11-27T22:26:01.244Z,7.08
2018-11-27T22:28:28.671Z,6.20
2018-11-27T22:30:56.091Z,4.97
2018-11-27T22:33:23.589Z,5.08
2018-11-27T22:35:50.999Z,6.30
2018-11-27T22:38:18.424Z,8.08
2018-11-27T22:40:45.886Z,4.80
2018-11-27T22:43:13.353Z,5.97
2018-11-27T22:45:40.784Z,4.03
2018-11-27T22:48:09.700Z,5.92
2018-11-27T22:50:37.189Z,4.97
2018-11-27T22:53:05.776Z,3.45
2018-11-27T22:55:33.234Z,5.37
2018-11-27T22:58:00.617Z,4.47
2018-11-27T23:00:33.928Z,3.30
2018-11-27T23:03:01.399Z,4.75
2018-11-27T23:05:28.934Z,6.00
2018-11-27T23:07:56.393Z,3.95
2018-11-27T23:10:24.843Z,6.17
2018-11-27T23:12:52.296Z,4.78
2018-11-27T23:15:20.603Z,3.77
2018-11-27T23:17:48.052Z,5.12
2018-11-27T23:20:16.494Z,7.45
2018-11-27T23:22:43.953Z,7.08
2018-11-27T23:25:12.233Z,3.65
2018-11-27T23:27:39.723Z,3.37
2018-11-27T23:30:16.939Z,4.58
2018-11-27T23:32:44.442Z,4.03
2018-11-27T23:35:11.913Z,2.33
2018-11-27T23:37:39.371Z,4.67
2018-11-27T23:40:11.608Z,6.37
2018-11-27T23:42:39.256Z,3.42
2018-11-27T23:45:09.158Z,5.28
2018-11-27T23:47:36.708Z,5.53
2018-11-27T23:50:05.027Z,7.35
2018-11-27T23:52:32.416Z,4.53
2018-11-27T23:54:59.859Z,4.75
2018-11-27T23:57:27.250Z,5.03
2018-11-27T23:59:54.654Z,4.95
